Time;durP1;ratioP1;P1;durP2;ratioP2;P2;SDS_P1;SDS_P2;PMS_P1;PMS_P2;Temp;Humidity;BMP_temperature;BMP_pressure;BME280_temperature;BME280_humidity;BME280_pressure;Samples;Min_cycle;Max_cycle;Signal;HPM_P1;HPM_P2
2022/02/02 00:01:37;;;;;;;1.57;1.33;;;6.60;98.00;;;;;;5114695;28;20460;-66
2022/02/02 00:04:06;;;;;;;1.10;1.10;;;6.60;98.00;;;;;;5114935;28;20540;-67
2022/02/02 00:06:40;;;;;;;1.10;0.90;;;6.60;98.00;;;;;;5114722;28;20530;-67
2022/02/02 00:09:11;;;;;;;1.10;1.00;;;6.60;98.00;;;;;;5114526;28;20468;-67
2022/02/02 00:14:33;;;;;;;1.10;0.90;;;6.60;98.00;;;;;;5114600;28;20612;-67
2022/02/02 00:17:05;;;;;;;1.10;1.00;;;6.60;98.00;;;;;;5114426;28;20465;-67
2022/02/02 00:19:42;;;;;;;1.10;1.00;;;6.60;98.00;;;;;;5114688;28;20533;-67
2022/02/02 00:22:13;;;;;;;1.10;0.90;;;6.70;98.00;;;;;;5114518;28;20498;-67
2022/02/02 00:24:56;;;;;;;1.20;1.00;;;6.70;98.00;;;;;;5114621;28;20539;-67
2022/02/02 00:27:25;;;;;;;1.10;1.00;;;6.80;98.00;;;;;;5114363;28;21020;-66
2022/02/02 00:29:56;;;;;;;1.10;1.00;;;6.80;98.00;;;;;;5114223;28;20455;-67
2022/02/02 00:32:38;;;;;;;1.10;0.93;;;6.90;98.00;;;;;;5114289;28;20454;-67
2022/02/02 00:35:06;;;;;;;1.10;1.10;;;6.90;98.00;;;;;;5114210;28;20452;-67
2022/02/02 00:37:34;;;;;;;1.10;0.90;;;6.90;98.00;;;;;;5114137;28;20453;-66
2022/02/02 00:40:02;;;;;;;1.10;1.00;;;7.00;98.00;;;;;;5113604;28;20457;-66
2022/02/02 00:42:29;;;;;;;1.50;1.00;;;7.00;98.00;;;;;;5113925;28;20521;-66
2022/02/02 00:44:58;;;;;;;1.10;0.90;;;6.90;98.00;;;;;;5113779;28;20449;-65
2022/02/02 00:47:27;;;;;;;1.10;1.07;;;6.90;98.00;;;;;;5112525;28;20463;-66
2022/02/02 00:49:55;;;;;;;1.10;1.00;;;7.00;98.00;;;;;;5113889;28;20446;-65
2022/02/02 00:52:23;;;;;;;1.10;0.90;;;7.00;98.00;;;;;;5112366;28;20985;-66
2022/02/02 00:54:50;;;;;;;1.10;0.97;;;7.10;98.00;;;;;;5113782;28;20450;-66
2022/02/02 00:57:18;;;;;;;1.10;1.00;;;7.20;98.00;;;;;;5113648;28;20459;-68
2022/02/02 00:59:45;;;;;;;1.10;0.90;;;7.30;98.00;;;;;;5113608;28;20484;-65
2022/02/02 01:02:13;;;;;;;1.10;1.00;;;7.30;98.00;;;;;;5113553;28;20493;-68
2022/02/02 01:04:41;;;;;;;1.10;0.90;;;7.40;98.00;;;;;;5113528;28;20469;-69
2022/02/02 01:07:15;;;;;;;1.63;1.50;;;7.40;98.00;;;;;;5112951;27;20451;-67
2022/02/02 01:09:47;;;;;;;1.10;0.90;;;7.50;98.00;;;;;;5112221;28;20847;-69
2022/02/02 01:20:35;;;;;;;1.97;1.63;;;7.60;98.00;;;;;;5102435;28;20450;-66
2022/02/02 01:28:33;;;;;;;1.10;0.90;;;7.50;98.00;;;;;;5113859;28;20452;-68
2022/02/02 01:31:01;;;;;;;1.10;1.00;;;7.50;98.00;;;;;;5113827;28;20987;-66
2022/02/02 01:33:29;;;;;;;1.10;1.00;;;7.40;98.00;;;;;;5114052;28;20451;-65
2022/02/02 01:35:57;;;;;;;1.40;1.37;;;7.40;98.00;;;;;;5113509;28;21165;-65
2022/02/02 01:38:27;;;;;;;1.10;1.00;;;7.40;98.00;;;;;;5112896;28;20482;-67
2022/02/02 01:40:59;;;;;;;1.33;1.10;;;7.30;98.00;;;;;;5113125;28;20475;-68
2022/02/02 01:43:33;;;;;;;1.10;1.00;;;7.30;98.00;;;;;;5113013;28;20827;-65
2022/02/02 01:46:04;;;;;;;1.10;0.90;;;7.20;98.00;;;;;;5111870;28;20489;-67
2022/02/02 01:48:38;;;;;;;1.10;1.00;;;7.00;98.00;;;;;;5112963;28;20452;-66
2022/02/02 01:51:26;;;;;;;1.10;0.90;;;6.80;98.00;;;;;;5111540;28;20853;-67
2022/02/02 01:53:59;;;;;;;1.10;1.00;;;6.60;98.00;;;;;;5112165;28;20454;-66
2022/02/02 01:56:26;;;;;;;1.10;0.90;;;6.50;98.00;;;;;;5112867;28;20458;-66
2022/02/02 01:59:04;;;;;;;1.10;0.97;;;6.30;98.00;;;;;;5112479;28;20483;-66
2022/02/02 02:01:32;;;;;;;1.10;1.10;;;6.30;98.00;;;;;;5112601;28;20461;-67
2022/02/02 02:04:00;;;;;;;1.10;1.00;;;6.20;98.00;;;;;;5111154;28;20485;-66
2022/02/02 02:06:28;;;;;;;2.63;1.13;;;6.20;98.00;;;;;;5112563;28;20493;-66
2022/02/02 02:08:55;;;;;;;1.10;1.00;;;6.20;98.00;;;;;;5112117;28;20507;-66
2022/02/02 02:11:23;;;;;;;1.10;0.90;;;6.30;98.00;;;;;;5112380;28;20517;-67
2022/02/02 02:14:28;;;;;;;1.10;0.90;;;6.20;98.00;;;;;;5112030;28;20466;-68
2022/02/02 02:16:48;;;;;;;1.10;1.00;;;6.30;98.00;;;;;;5112096;28;20957;-65
2022/02/02 02:19:15;;;;;;;1.10;0.90;;;6.30;98.00;;;;;;5112023;28;20493;-66
2022/02/02 02:21:45;;;;;;;1.63;1.50;;;6.20;98.00;;;;;;5112052;28;21018;-67
2022/02/02 02:24:13;;;;;;;1.10;0.90;;;6.20;98.00;;;;;;5111876;28;20455;-66
2022/02/02 02:26:41;;;;;;;1.10;1.00;;;6.20;98.00;;;;;;5112003;28;20994;-65
2022/02/02 02:32:09;;;;;;;1.10;0.97;;;6.20;98.00;;;;;;5111233;28;20469;-66
2022/02/02 02:34:53;;;;;;;1.10;0.90;;;6.20;98.00;;;;;;5111966;28;20458;-67
2022/02/02 02:37:41;;;;;;;1.10;0.97;;;6.20;98.00;;;;;;5111742;28;20458;-66
2022/02/02 02:40:27;;;;;;;1.10;0.90;;;6.00;98.00;;;;;;5110831;28;20989;-67
2022/02/02 02:56:43;;;;;;;1.10;1.00;;;5.80;98.00;;;;;;5111664;28;20485;-65
2022/02/02 02:59:14;;;;;;;1.10;0.93;;;5.80;98.00;;;;;;5111576;28;20447;-66
2022/02/02 03:02:13;;;;;;;1.10;1.00;;;5.80;98.00;;;;;;5111477;28;20455;-67
2022/02/02 03:32:31;;;;;;;1.10;0.90;;;6.10;98.00;;;;;;5110948;28;20478;-65
2022/02/02 03:35:09;;;;;;;1.30;1.30;;;6.30;98.00;;;;;;5110842;28;20443;-66
2022/02/02 03:51:30;;;;;;;1.10;0.90;;;6.10;98.00;;;;;;5110678;28;20482;-65
2022/02/02 03:54:23;;;;;;;1.10;0.90;;;6.10;98.00;;;;;;5110893;28;20537;-66
2022/02/02 03:59:40;;;;;;;1.20;1.10;;;6.10;98.00;;;;;;5110721;28;20695;-66
2022/02/02 04:02:39;;;;;;;1.10;1.00;;;6.10;98.00;;;;;;5110723;28;20817;-67
2022/02/02 04:10:29;;;;;;;1.30;1.20;;;6.40;98.00;;;;;;5110863;28;20458;-68
2022/02/02 04:13:07;;;;;;;1.53;1.30;;;6.50;98.00;;;;;;5110711;28;20492;-66
2022/02/02 04:38:23;;;;;;;1.30;1.30;;;6.80;98.00;;;;;;5114611;28;20438;-67
2022/02/02 04:52:18;;;;;;;1.10;1.10;;;7.00;98.00;;;;;;5050749;28;20616;-67
2022/02/02 04:54:49;;;;;;;1.10;1.10;;;7.00;98.00;;;;;;5092405;28;20444;-66
2022/02/02 05:00:44;;;;;;;1.10;1.00;;;7.00;98.00;;;;;;5097504;28;20454;-66
2022/02/02 05:05:58;;;;;;;1.23;1.17;;;7.10;98.00;;;;;;5113231;28;20447;-66
2022/02/02 05:08:33;;;;;;;1.10;1.00;;;7.10;98.00;;;;;;5113163;28;20813;-66
2022/02/02 05:11:15;;;;;;;3.20;1.63;;;7.10;98.00;;;;;;5113444;28;21054;-66
2022/02/02 05:16:38;;;;;;;1.10;0.90;;;7.10;98.00;;;;;;5113435;28;20448;-65
2022/02/02 05:22:21;;;;;;;1.13;1.10;;;7.10;98.00;;;;;;5078833;28;20456;-66
2022/02/02 05:44:38;;;;;;;1.10;1.07;;;6.90;98.00;;;;;;5112855;28;20444;-67
2022/02/02 05:50:17;;;;;;;1.10;1.00;;;7.00;98.00;;;;;;5112985;28;20494;-66
2022/02/02 05:52:45;;;;;;;1.13;1.10;;;7.00;98.00;;;;;;5112602;28;20483;-67
2022/02/02 05:55:12;;;;;;;1.20;1.10;;;7.00;98.00;;;;;;5112853;28;20482;-66
2022/02/02 05:57:42;;;;;;;1.10;1.00;;;7.00;98.00;;;;;;5112697;28;20494;-67
2022/02/02 06:00:10;;;;;;;1.10;0.90;;;7.00;98.00;;;;;;5112871;28;20531;-66
2022/02/02 06:02:38;;;;;;;1.83;1.43;;;7.00;98.00;;;;;;5111331;28;20539;-66
2022/02/02 06:05:08;;;;;;;1.20;1.20;;;7.00;98.00;;;;;;5112462;28;20473;-67
2022/02/02 06:07:36;;;;;;;2.50;1.73;;;7.00;98.00;;;;;;5112197;28;20568;-66
2022/02/02 06:10:05;;;;;;;1.10;0.90;;;7.00;98.00;;;;;;5112306;28;20855;-67
2022/02/02 06:12:33;;;;;;;1.10;1.00;;;7.00;98.00;;;;;;5112250;28;20573;-66
2022/02/02 06:15:08;;;;;;;1.10;0.90;;;7.00;98.00;;;;;;5112608;28;20491;-66
2022/02/02 06:17:41;;;;;;;2.37;1.20;;;7.00;98.00;;;;;;5112264;28;20471;-67
2022/02/02 06:20:09;;;;;;;1.10;1.00;;;6.90;98.00;;;;;;5112249;28;20485;-67
2022/02/02 06:22:43;;;;;;;1.13;1.00;;;7.00;98.00;;;;;;5113040;28;20530;-67
2022/02/02 06:25:20;;;;;;;1.10;1.00;;;7.10;98.00;;;;;;5112673;28;20889;-67
2022/02/02 06:27:56;;;;;;;1.10;1.00;;;7.10;98.00;;;;;;5113004;28;20450;-66
2022/02/02 06:30:26;;;;;;;14.87;2.27;;;7.10;98.00;;;;;;5112033;28;20878;-66
2022/02/02 06:32:58;;;;;;;1.10;0.90;;;7.10;98.00;;;;;;5111929;28;20479;-67
2022/02/02 06:35:25;;;;;;;1.20;1.10;;;7.00;98.00;;;;;;5112033;28;20885;-66
2022/02/02 06:38:01;;;;;;;1.10;0.90;;;6.90;98.00;;;;;;5111433;28;20457;-68
2022/02/02 06:40:29;;;;;;;1.10;1.00;;;6.80;98.00;;;;;;5111868;28;20500;-68
2022/02/02 06:42:58;;;;;;;1.10;1.00;;;6.70;98.00;;;;;;5111692;28;20448;-68
2022/02/02 06:45:27;;;;;;;1.10;0.90;;;6.80;98.00;;;;;;5111648;28;20498;-66
2022/02/02 06:47:55;;;;;;;1.63;1.40;;;6.80;98.00;;;;;;5111732;28;20891;-66
2022/02/02 06:50:26;;;;;;;1.10;1.00;;;6.80;98.00;;;;;;5111725;28;20467;-67
2022/02/02 06:53:07;;;;;;;1.47;1.00;;;6.70;98.00;;;;;;5111629;28;20518;-66
2022/02/02 06:55:48;;;;;;;1.10;1.00;;;6.70;98.00;;;;;;5111703;28;20696;-66
2022/02/02 06:58:25;;;;;;;3.50;1.37;;;6.70;98.00;;;;;;5111469;28;20505;-66
2022/02/02 07:01:05;;;;;;;1.10;0.93;;;6.70;98.00;;;;;;5111577;28;20473;-69
2022/02/02 07:03:55;;;;;;;1.67;1.40;;;6.70;98.00;;;;;;5111240;28;20501;-67
2022/02/02 07:06:40;;;;;;;1.10;0.97;;;6.70;98.00;;;;;;5111338;28;20459;-67
2022/02/02 07:09:23;;;;;;;1.10;0.97;;;6.80;98.00;;;;;;5111427;28;20517;-66
2022/02/02 07:12:03;;;;;;;1.30;1.10;;;6.80;98.00;;;;;;5111340;28;20478;-67
2022/02/02 07:14:43;;;;;;;3.20;1.87;;;6.90;98.00;;;;;;5111306;28;20452;-66
2022/02/02 07:17:32;;;;;;;1.10;1.00;;;6.90;98.00;;;;;;5111342;28;20498;-66
2022/02/02 07:20:09;;;;;;;1.40;1.33;;;6.90;98.00;;;;;;5111370;28;20462;-68
2022/02/02 07:23:07;;;;;;;2.80;1.33;;;6.90;98.00;;;;;;5111481;28;20457;-66
2022/02/02 07:26:03;;;;;;;1.10;1.00;;;6.90;98.00;;;;;;5111500;28;20460;-65
2022/02/02 07:28:37;;;;;;;1.10;1.00;;;7.00;98.00;;;;;;5110079;28;20455;-66
2022/02/02 07:31:20;;;;;;;1.10;1.00;;;7.10;98.00;;;;;;5111371;28;20456;-67
2022/02/02 07:33:52;;;;;;;1.10;1.00;;;7.10;98.00;;;;;;5110731;28;20494;-66
2022/02/02 07:36:30;;;;;;;1.10;1.10;;;7.10;98.00;;;;;;5111151;28;20454;-66
2022/02/02 07:39:05;;;;;;;1.10;1.00;;;7.10;98.00;;;;;;5110836;28;20464;-66
2022/02/02 07:41:34;;;;;;;1.10;1.00;;;7.20;98.00;;;;;;5111122;28;20459;-67
2022/02/02 07:44:09;;;;;;;1.10;0.90;;;7.20;98.00;;;;;;5110545;28;20480;-66
2022/02/02 07:46:37;;;;;;;1.30;1.20;;;7.20;98.00;;;;;;5111073;28;20582;-66
2022/02/02 07:49:08;;;;;;;1.10;1.00;;;7.30;98.00;;;;;;5110873;28;21008;-67
2022/02/02 07:51:38;;;;;;;1.10;1.00;;;7.30;98.00;;;;;;5113188;28;20557;-68
2022/02/02 07:54:09;;;;;;;1.20;1.10;;;7.30;98.00;;;;;;5114730;28;20446;-67
2022/02/02 07:56:42;;;;;;;1.30;1.00;;;7.40;98.00;;;;;;5114868;28;20459;-67
2022/02/02 07:59:17;;;;;;;1.10;0.90;;;7.40;98.00;;;;;;5113704;28;20457;-67
2022/02/02 08:01:46;;;;;;;1.20;1.10;;;7.50;98.00;;;;;;5114878;28;20475;-67
2022/02/02 08:04:16;;;;;;;2.37;1.47;;;7.50;98.00;;;;;;5114682;28;20941;-67
2022/02/02 08:06:49;;;;;;;1.20;1.10;;;7.60;98.00;;;;;;5114527;28;20534;-67
2022/02/02 08:09:25;;;;;;;1.10;1.10;;;7.60;98.00;;;;;;5114508;28;20868;-66
2022/02/02 08:11:53;;;;;;;1.10;1.10;;;7.60;98.00;;;;;;5114730;28;20541;-66
2022/02/02 08:14:21;;;;;;;1.10;1.00;;;7.60;98.00;;;;;;5114406;28;20461;-67
2022/02/02 08:16:48;;;;;;;1.10;1.00;;;7.70;98.00;;;;;;5114710;28;20721;-67
2022/02/02 08:19:18;;;;;;;1.10;1.10;;;7.70;98.00;;;;;;5114462;28;20862;-66
2022/02/02 08:21:45;;;;;;;1.30;1.30;;;7.70;98.00;;;;;;5114442;28;20460;-67
2022/02/02 08:24:13;;;;;;;1.30;1.17;;;7.60;98.00;;;;;;5114366;28;20971;-67
2022/02/02 08:26:40;;;;;;;1.10;1.07;;;7.60;98.00;;;;;;5114387;28;20977;-66
2022/02/02 08:29:08;;;;;;;1.20;1.10;;;7.60;98.00;;;;;;5114118;28;20461;-67
2022/02/02 08:31:38;;;;;;;1.10;1.00;;;7.60;98.00;;;;;;5114174;28;20501;-67
2022/02/02 08:34:10;;;;;;;1.70;1.60;;;7.60;98.00;;;;;;5113724;28;20587;-67
2022/02/02 08:36:40;;;;;;;1.10;1.00;;;7.60;98.00;;;;;;5114168;28;20457;-67
2022/02/02 08:39:26;;;;;;;1.20;1.03;;;7.60;98.00;;;;;;5113999;28;20452;-67
2022/02/02 08:42:02;;;;;;;3.13;1.20;;;7.60;98.00;;;;;;5114153;28;21014;-68
2022/02/02 08:44:41;;;;;;;1.33;1.27;;;7.70;98.00;;;;;;5113989;28;20479;-67
2022/02/02 08:47:10;;;;;;;1.10;1.00;;;7.70;98.00;;;;;;5114128;28;20453;-67
2022/02/02 08:49:45;;;;;;;1.20;1.00;;;7.70;98.00;;;;;;5114187;28;20448;-67
2022/02/02 08:52:15;;;;;;;1.10;1.00;;;7.80;98.00;;;;;;5113979;28;20488;-67
2022/02/02 08:54:47;;;;;;;1.10;1.00;;;7.80;98.00;;;;;;5110871;27;21288;-65
2022/02/02 08:57:30;;;;;;;1.10;1.00;;;7.80;98.00;;;;;;5112750;27;20538;-65
2022/02/02 09:00:03;;;;;;;1.20;1.10;;;7.80;98.00;;;;;;5116253;27;20923;-66
2022/02/02 09:02:33;;;;;;;1.43;1.17;;;7.80;98.00;;;;;;5122968;27;20465;-66
2022/02/02 09:05:20;;;;;;;1.10;1.00;;;7.80;98.00;;;;;;5117587;27;20448;-67
2022/02/02 09:07:49;;;;;;;1.10;1.00;;;7.90;98.00;;;;;;5120855;27;20555;-67
2022/02/02 09:10:25;;;;;;;1.10;1.00;;;7.90;98.00;;;;;;5129988;27;20962;-67
2022/02/02 09:21:58;;;;;;;1.10;1.00;;;8.00;98.00;;;;;;5115648;27;20451;-67
2022/02/02 09:24:19;;;;;;;1.20;1.00;;;8.10;98.00;;;;;;5121183;27;20451;-67
2022/02/02 09:34:55;;;;;;;1.40;1.30;;;8.20;98.00;;;;;;5129415;27;20456;-67
2022/02/02 09:37:23;;;;;;;1.30;1.17;;;8.20;98.00;;;;;;5113809;27;20540;-64
2022/02/02 09:40:02;;;;;;;1.63;1.20;;;8.20;98.00;;;;;;5120418;27;20449;-65
2022/02/02 09:42:32;;;;;;;1.13;1.00;;;8.20;98.00;;;;;;5120148;27;20468;-66
2022/02/02 09:45:06;;;;;;;1.20;1.00;;;8.20;98.00;;;;;;5113493;27;20461;-66
2022/02/02 09:47:41;;;;;;;1.17;1.00;;;8.20;98.00;;;;;;5113495;27;20820;-65
2022/02/02 09:50:34;;;;;;;1.13;1.00;;;8.30;98.00;;;;;;5113276;27;20535;-66
2022/02/02 09:53:04;;;;;;;3.87;2.40;;;8.30;98.00;;;;;;5104519;27;20482;-65
2022/02/02 09:55:55;;;;;;;1.30;1.10;;;8.20;98.00;;;;;;5113735;27;20459;-65
2022/02/02 09:58:42;;;;;;;1.13;0.97;;;8.30;98.00;;;;;;5111657;27;20464;-66
2022/02/02 10:01:41;;;;;;;1.13;1.00;;;8.20;98.00;;;;;;5113815;27;20455;-66
2022/02/02 10:04:31;;;;;;;1.17;1.00;;;8.30;98.00;;;;;;5111901;27;20969;-65
2022/02/02 10:07:36;;;;;;;1.20;1.10;;;8.30;98.00;;;;;;5115501;27;20477;-66
2022/02/02 10:10:35;;;;;;;1.70;1.47;;;8.40;98.00;;;;;;5110313;27;20458;-66
2022/02/02 10:13:25;;;;;;;1.30;1.27;;;8.40;98.00;;;;;;5110324;27;20499;-66
2022/02/02 10:15:54;;;;;;;1.20;1.00;;;8.50;98.00;;;;;;5113383;27;20743;-65
2022/02/02 10:18:30;;;;;;;1.10;1.00;;;8.60;98.00;;;;;;5104997;27;20475;-65
2022/02/02 10:21:00;;;;;;;1.20;1.10;;;8.60;98.00;;;;;;5109253;27;20554;-66
2022/02/02 10:23:29;;;;;;;1.70;1.27;;;8.70;98.00;;;;;;5111959;27;20464;-66
2022/02/02 10:25:59;;;;;;;3.93;1.27;;;8.70;98.00;;;;;;5112374;27;20496;-67
2022/02/02 10:28:32;;;;;;;1.20;1.10;;;8.80;98.00;;;;;;5114382;27;20455;-66
2022/02/02 10:31:04;;;;;;;1.70;1.63;;;8.80;98.00;;;;;;5112549;27;20495;-66
2022/02/02 10:33:32;;;;;;;1.27;1.17;;;8.70;98.00;;;;;;5109700;27;20489;-66
2022/02/02 10:36:08;;;;;;;1.20;1.10;;;8.80;98.00;;;;;;5110993;27;20517;-64
2022/02/02 10:38:43;;;;;;;1.10;1.00;;;8.80;98.00;;;;;;5112266;27;20894;-65
2022/02/02 10:41:18;;;;;;;1.20;1.00;;;8.70;98.00;;;;;;5108441;27;20454;-65
2022/02/02 10:43:54;;;;;;;1.20;1.10;;;8.70;98.00;;;;;;5119441;27;20462;-64
2022/02/02 10:46:28;;;;;;;1.40;1.10;;;8.80;98.00;;;;;;5119727;27;20471;-64
2022/02/02 10:49:00;;;;;;;1.50;1.43;;;8.70;98.00;;;;;;5115379;27;20513;-64
2022/02/02 10:51:37;;;;;;;1.20;1.00;;;8.70;98.00;;;;;;5098370;28;20479;-65
2022/02/02 10:54:18;;;;;;;1.20;1.00;;;8.70;98.00;;;;;;5096996;28;20543;-65
2022/02/02 10:56:50;;;;;;;1.20;1.03;;;8.70;98.00;;;;;;5090473;28;20453;-66
2022/02/02 10:59:31;;;;;;;1.20;1.00;;;8.80;98.00;;;;;;5070155;28;20502;-65
2022/02/02 11:07:27;;;;;;;1.20;1.00;;;8.90;98.00;;;;;;5097982;28;20461;-66
2022/02/02 11:09:56;;;;;;;1.83;1.20;;;8.90;98.00;;;;;;5105818;28;20480;-66
2022/02/02 11:12:32;;;;;;;1.20;1.00;;;8.90;98.00;;;;;;5093811;28;20458;-65
2022/02/02 11:15:09;;;;;;;1.10;1.00;;;8.80;98.00;;;;;;5105456;28;20459;-66
2022/02/02 11:17:50;;;;;;;1.57;1.33;;;8.80;98.00;;;;;;5099249;28;20504;-63
2022/02/02 11:20:18;;;;;;;1.20;1.03;;;8.90;98.00;;;;;;5090185;28;20459;-65
2022/02/02 11:22:50;;;;;;;1.23;1.20;;;8.90;98.00;;;;;;5098526;28;20462;-66
2022/02/02 11:25:33;;;;;;;1.20;0.90;;;8.90;98.00;;;;;;5101611;28;20465;-66
2022/02/02 11:28:02;;;;;;;1.30;1.27;;;9.10;98.00;;;;;;5104102;28;20463;-66
2022/02/02 11:30:41;;;;;;;1.73;1.30;;;9.50;98.00;;;;;;5110967;28;20458;-67
2022/02/02 11:33:27;;;;;;;1.20;1.00;;;9.60;98.00;;;;;;5100054;28;20492;-66
2022/02/02 11:35:59;;;;;;;1.20;1.00;;;9.50;98.00;;;;;;5104169;28;20978;-65
2022/02/02 11:38:44;;;;;;;1.80;1.40;;;9.40;98.00;;;;;;5103333;28;20466;-65
2022/02/02 11:41:40;;;;;;;1.20;1.00;;;9.30;98.00;;;;;;5111339;28;20534;-66
2022/02/02 11:44:13;;;;;;;1.90;1.20;;;9.20;98.00;;;;;;5087502;28;20461;-66
2022/02/02 11:47:06;;;;;;;1.20;1.20;;;9.20;98.00;;;;;;5104786;28;20550;-68
2022/02/02 11:49:47;;;;;;;1.17;1.00;;;9.20;98.00;;;;;;5109508;28;20471;-67
2022/02/02 11:52:37;;;;;;;1.20;1.00;;;9.20;98.00;;;;;;5111477;28;20946;-66
2022/02/02 11:55:06;;;;;;;1.20;1.10;;;9.20;98.00;;;;;;5111104;28;20499;-66
2022/02/02 11:57:53;;;;;;;1.20;1.10;;;9.30;98.00;;;;;;5103762;28;20469;-65
2022/02/02 12:00:30;;;;;;;1.20;1.00;;;9.30;98.00;;;;;;5098442;28;20448;-66
2022/02/02 12:08:40;;;;;;;1.20;1.13;;;9.20;98.00;;;;;;5089614;28;20975;-65
2022/02/02 12:11:40;;;;;;;1.20;1.10;;;9.20;98.00;;;;;;5094656;28;20980;-65
2022/02/02 12:45:27;;;;;;;1.20;1.00;;;9.30;98.00;;;;;;5109744;28;20454;-65
2022/02/02 12:48:02;;;;;;;1.40;1.30;;;9.30;98.00;;;;;;5108905;28;20514;-66
2022/02/02 12:53:34;;;;;;;2.60;1.40;;;9.30;98.00;;;;;;5100082;28;20464;-69
2022/02/02 12:53:49;;;;;;;1.20;1.00;;;9.30;98.00;;;;;;5095444;28;20485;-67
2022/02/02 12:56:35;;;;;;;1.20;1.00;;;9.20;98.00;;;;;;5108291;28;20468;-68
2022/02/02 13:02:05;;;;;;;1.30;1.10;;;9.60;98.00;;;;;;5107941;28;20481;-66
2022/02/02 13:04:33;;;;;;;5.73;1.70;;;9.90;98.00;;;;;;5100819;28;20866;-64
2022/02/02 13:07:08;;;;;;;1.20;1.00;;;9.90;98.00;;;;;;5096489;28;20461;-66
2022/02/02 13:09:38;;;;;;;1.20;1.00;;;9.80;98.00;;;;;;5101282;28;20455;-67
2022/02/02 13:12:23;;;;;;;1.93;1.20;;;9.80;98.00;;;;;;5109462;28;20483;-67
2022/02/02 13:15:25;;;;;;;1.30;1.20;;;10.20;98.00;;;;;;5109583;28;20860;-68
2022/02/02 13:18:04;;;;;;;1.20;1.10;;;10.20;98.00;;;;;;5094802;28;20636;-68
2022/02/02 13:20:45;;;;;;;1.53;1.40;;;10.10;98.00;;;;;;5104547;28;20480;-67
2022/02/02 13:23:19;;;;;;;1.20;1.00;;;10.00;98.00;;;;;;5097847;28;20520;-68
2022/02/02 13:25:53;;;;;;;1.20;1.00;;;9.80;98.00;;;;;;5106581;28;20449;-67
2022/02/02 13:28:40;;;;;;;1.20;1.00;;;9.60;98.00;;;;;;5109006;28;20514;-67
2022/02/02 13:31:09;;;;;;;1.20;1.00;;;9.50;98.00;;;;;;5110255;28;20459;-67
2022/02/02 13:33:41;;;;;;;1.20;1.00;;;9.30;98.00;;;;;;5110167;28;20564;-67
2022/02/02 13:36:16;;;;;;;1.30;1.23;;;9.10;98.00;;;;;;5109584;28;20905;-67
2022/02/02 13:44:43;;;;;;;1.20;1.00;;;8.80;98.00;;;;;;5105606;28;20461;-68
2022/02/02 13:50:43;;;;;;;1.20;1.00;;;8.90;98.00;;;;;;5052951;28;21100;-67
2022/02/02 13:59:24;;;;;;;1.20;1.00;;;9.40;98.00;;;;;;5058873;28;20464;-67
2022/02/02 14:01:58;;;;;;;1.20;0.90;;;9.40;98.00;;;;;;5093137;28;20459;-67
2022/02/02 14:04:37;;;;;;;1.20;1.03;;;9.30;98.00;;;;;;5092818;28;20481;-65
2022/02/02 14:07:20;;;;;;;1.20;1.00;;;9.20;98.00;;;;;;5091416;28;20472;-67
2022/02/02 14:10:14;;;;;;;1.20;1.00;;;9.10;98.00;;;;;;5092699;28;20544;-68
2022/02/02 14:31:51;;;;;;;1.20;1.00;;;9.20;98.00;;;;;;5092598;28;20575;-66
2022/02/02 14:34:18;;;;;;;1.20;1.00;;;9.20;98.00;;;;;;5092020;28;20612;-67
2022/02/02 14:36:46;;;;;;;1.20;1.10;;;9.20;98.00;;;;;;5092195;28;20500;-67
2022/02/02 14:39:18;;;;;;;1.23;1.10;;;9.30;98.00;;;;;;5092127;28;20453;-67
2022/02/02 14:41:49;;;;;;;1.20;1.00;;;9.70;98.00;;;;;;5092344;28;20533;-68
2022/02/02 14:44:21;;;;;;;1.20;1.00;;;9.80;98.00;;;;;;5092138;28;20487;-67
2022/02/02 14:46:58;;;;;;;1.20;1.00;;;9.90;98.00;;;;;;5092116;28;20460;-66
2022/02/02 14:49:31;;;;;;;3.00;1.23;;;10.20;98.00;;;;;;5092050;28;20587;-67
2022/02/02 14:52:05;;;;;;;1.20;1.00;;;10.40;98.00;;;;;;5092279;28;20451;-64
2022/02/02 14:54:58;;;;;;;1.60;1.30;;;10.80;98.00;;;;;;5091941;28;20481;-64
2022/02/02 15:23:47;;;;;;;1.30;1.20;;;9.60;98.00;;;;;;5057332;28;20453;-65
2022/02/02 15:27:58;;;;;;;1.20;1.00;;;9.90;98.00;;;;;;5091810;28;20512;-64
2022/02/02 15:30:30;;;;;;;3.67;1.33;;;9.80;98.00;;;;;;5091831;28;20510;-66
2022/02/02 15:33:01;;;;;;;1.40;1.20;;;9.90;98.00;;;;;;5091793;28;20542;-67
2022/02/02 15:35:31;;;;;;;1.20;1.00;;;10.20;98.00;;;;;;5090570;28;20483;-66
2022/02/02 15:38:04;;;;;;;1.20;1.03;;;10.70;98.00;;;;;;5091612;28;20455;-66
2022/02/02 15:40:37;;;;;;;1.30;1.30;;;11.30;98.00;;;;;;5091756;28;20815;-68
2022/02/02 15:43:21;;;;;;;1.40;1.30;;;11.70;98.00;;;;;;5090491;28;20484;-67
2022/02/02 16:00:04;;;;;;;1.30;1.10;;;9.80;98.00;;;;;;5090278;28;20520;-66
2022/02/02 16:02:53;;;;;;;1.20;1.10;;;9.50;98.00;;;;;;5091031;28;20446;-68
2022/02/02 16:05:28;;;;;;;1.50;1.10;;;9.30;98.00;;;;;;5091362;28;20942;-66
2022/02/02 16:08:03;;;;;;;1.20;1.00;;;9.00;98.00;;;;;;5090998;28;20832;-68
2022/02/02 16:10:42;;;;;;;1.50;1.10;;;8.80;98.00;;;;;;5090869;28;20457;-66
2022/02/02 16:13:25;;;;;;;1.40;1.10;;;8.60;98.00;;;;;;5094665;28;20455;-66
2022/02/02 16:15:55;;;;;;;1.63;1.43;;;8.40;98.00;;;;;;5093936;28;20574;-66
2022/02/02 16:18:35;;;;;;;1.20;1.00;;;8.30;98.00;;;;;;5094589;28;20859;-66
2022/02/02 16:32:27;;;;;;;3.70;1.40;;;7.90;98.00;;;;;;5093971;28;21515;-65
2022/02/02 16:35:07;;;;;;;1.20;1.00;;;7.80;98.00;;;;;;5093876;28;20519;-67
2022/02/02 16:37:37;;;;;;;1.33;1.20;;;7.80;98.00;;;;;;5094508;28;21018;-68
2022/02/02 16:40:09;;;;;;;1.20;1.10;;;7.90;98.00;;;;;;5094636;28;21157;-67
2022/02/02 16:43:07;;;;;;;1.40;1.10;;;7.90;98.00;;;;;;5094768;28;20452;-67
2022/02/02 16:45:35;;;;;;;1.20;1.10;;;7.90;98.00;;;;;;5094489;28;20539;-67
2022/02/02 16:48:02;;;;;;;1.20;1.00;;;7.80;98.00;;;;;;5094564;28;20488;-68
2022/02/02 16:50:32;;;;;;;1.20;1.00;;;7.70;98.00;;;;;;5094417;28;20481;-69
2022/02/02 16:53:04;;;;;;;1.20;1.00;;;7.60;98.00;;;;;;5094683;28;20454;-67
2022/02/02 16:55:39;;;;;;;1.20;0.90;;;7.60;98.00;;;;;;5094110;28;20567;-68
2022/02/02 16:58:21;;;;;;;1.40;1.20;;;7.60;98.00;;;;;;5094556;28;20995;-67
2022/02/02 17:31:03;;;;;;;1.20;1.00;;;7.30;98.00;;;;;;5061820;28;20903;-68
2022/02/02 17:33:35;;;;;;;1.30;1.03;;;7.30;98.00;;;;;;5093422;28;20463;-68
2022/02/02 17:36:16;;;;;;;1.17;0.97;;;7.30;98.00;;;;;;5090259;28;21008;-68
2022/02/02 17:38:52;;;;;;;1.20;1.00;;;7.30;98.00;;;;;;5073070;28;20453;-69
2022/02/02 17:41:34;;;;;;;1.20;1.00;;;7.40;98.00;;;;;;5073162;28;20466;-67
2022/02/02 18:20:03;;;;;;;1.20;1.00;;;7.00;98.00;;;;;;5071603;28;20437;-67
2022/02/02 18:22:36;;;;;;;1.20;1.00;;;7.00;98.00;;;;;;5072732;28;20460;-66
2022/02/02 18:25:09;;;;;;;1.30;1.00;;;7.00;98.00;;;;;;5072475;28;20534;-68
2022/02/02 18:27:45;;;;;;;1.47;1.23;;;7.10;98.00;;;;;;5072148;28;20453;-68
2022/02/02 18:30:26;;;;;;;1.20;0.97;;;7.10;98.00;;;;;;5072215;28;20544;-67
2022/02/02 18:33:11;;;;;;;1.20;1.00;;;7.10;98.00;;;;;;5072021;28;20453;-68
2022/02/02 18:35:43;;;;;;;1.20;1.00;;;7.00;98.00;;;;;;5071489;28;20487;-66
2022/02/02 18:44:29;;;;;;;1.77;1.33;;;7.00;98.00;;;;;;5071908;28;20954;-66
2022/02/02 18:49:51;;;;;;;1.20;1.00;;;7.10;98.00;;;;;;5071350;28;20485;-66
2022/02/02 18:55:15;;;;;;;1.20;1.00;;;7.10;98.00;;;;;;5071816;28;20491;-69
2022/02/02 18:57:54;;;;;;;1.30;1.10;;;7.10;98.00;;;;;;5071599;28;20464;-67
2022/02/02 19:00:46;;;;;;;1.20;1.00;;;7.10;98.00;;;;;;5071697;28;20455;-66
2022/02/02 19:03:40;;;;;;;1.70;1.53;;;7.10;98.00;;;;;;5071489;28;20460;-68
2022/02/02 19:56:25;;;;;;;1.17;1.00;;;6.10;98.00;;;;;;5095564;27;20496;-67
2022/02/02 20:02:03;;;;;;;1.20;1.00;;;6.00;98.00;;;;;;5113733;28;20509;-68
2022/02/02 20:04:42;;;;;;;1.50;1.20;;;6.00;98.00;;;;;;5115565;28;20446;-67
2022/02/02 20:07:24;;;;;;;1.30;1.20;;;5.90;98.00;;;;;;5115217;28;20450;-68
2022/02/02 20:10:00;;;;;;;1.73;1.20;;;5.80;98.00;;;;;;5115351;28;20456;-67
2022/02/02 20:12:31;;;;;;;1.30;1.10;;;5.70;98.00;;;;;;5115287;28;20791;-68
2022/02/02 20:14:59;;;;;;;1.20;1.00;;;5.70;98.00;;;;;;5115203;28;20525;-67
2022/02/02 20:17:27;;;;;;;2.23;1.93;;;5.70;98.00;;;;;;5115482;28;20852;-67
2022/02/02 20:19:59;;;;;;;1.30;1.10;;;5.60;98.00;;;;;;5115317;28;20464;-68
2022/02/02 20:22:31;;;;;;;1.20;1.00;;;5.60;98.00;;;;;;5115266;28;20453;-67
2022/02/02 20:25:00;;;;;;;1.20;1.00;;;5.60;98.00;;;;;;5115074;28;20969;-67
2022/02/02 20:27:35;;;;;;;2.37;1.20;;;5.60;98.00;;;;;;5115099;28;20447;-67
2022/02/02 20:30:04;;;;;;;1.13;1.00;;;5.60;98.00;;;;;;5113799;28;20462;-67
2022/02/02 20:32:31;;;;;;;1.60;1.10;;;5.60;98.00;;;;;;5115180;28;20794;-66
2022/02/02 20:34:58;;;;;;;1.20;1.00;;;5.60;98.00;;;;;;5114938;28;20543;-66
2022/02/02 20:37:27;;;;;;;1.20;1.10;;;5.50;98.00;;;;;;5113763;28;20485;-67
2022/02/02 20:39:59;;;;;;;1.23;1.07;;;5.50;98.00;;;;;;5114959;28;21033;-67
2022/02/02 20:42:34;;;;;;;1.20;1.00;;;5.60;98.00;;;;;;5114982;28;20458;-68
2022/02/02 20:45:16;;;;;;;1.20;1.00;;;5.70;98.00;;;;;;5114968;27;20517;-69
2022/02/02 21:04:24;;;;;;;1.30;1.10;;;5.10;98.00;;;;;;5114501;28;20576;-66
2022/02/02 21:07:06;;;;;;;1.20;1.00;;;5.20;98.00;;;;;;5114685;28;20504;-67
2022/02/02 21:09:49;;;;;;;1.20;1.00;;;5.20;98.00;;;;;;5114053;28;20446;-67